Time;durP1;ratioP1;P1;durP2;ratioP2;P2;SDS_P1;SDS_P2;PMS_P1;PMS_P2;Temp;Humidity;BMP_temperature;BMP_pressure;BME280_temperature;BME280_humidity;BME280_pressure;Samples;Min_cycle;Max_cycle;Signal;HPM_P1;HPM_P2
2024/02/20 00:00:36;;;;;;;5.30;3.10;;;;;;;8.43;100.00;153524.47;5090937;28;20559;-90
2024/02/20 00:03:04;;;;;;;5.60;3.20;;;;;;;8.42;100.00;153523.16;5108276;28;20464;-91
2024/02/20 00:05:31;;;;;;;4.53;2.60;;;;;;;8.44;100.00;153527.06;5058817;28;20449;-91
2024/02/20 00:08:02;;;;;;;5.53;3.50;;;;;;;8.44;100.00;153528.34;5063133;28;20881;-91
2024/02/20 00:10:29;;;;;;;4.53;3.30;;;;;;;8.41;100.00;153520.59;5109671;28;20456;-91
2024/02/20 00:12:57;;;;;;;5.17;3.30;;;;;;;8.39;100.00;153515.38;5111471;28;20489;-91
2024/02/20 00:15:24;;;;;;;4.20;2.90;;;;;;;8.40;100.00;153518.00;5096138;28;20436;-91
2024/02/20 00:17:50;;;;;;;4.73;3.40;;;;;;;8.39;100.00;153515.38;5114968;28;20995;-91
2024/02/20 00:20:18;;;;;;;4.03;2.53;;;;;;;8.40;100.00;153516.69;5107914;28;20455;-91
2024/02/20 00:22:45;;;;;;;5.23;3.17;;;;;;;8.39;100.00;153515.38;5115859;28;20844;-92
2024/02/20 00:25:12;;;;;;;4.87;3.37;;;;;;;8.40;100.00;153518.00;5095508;27;20448;-92
2024/02/20 00:27:38;;;;;;;4.20;3.20;;;;;;;8.37;100.00;153508.94;5097092;28;20451;-92
2024/02/20 00:30:07;;;;;;;4.30;2.87;;;;;;;8.39;100.00;153514.13;5084518;28;21073;-91
2024/02/20 00:32:33;;;;;;;4.87;3.10;;;;;;;8.40;100.00;153518.00;5078067;28;20438;-91
2024/02/20 00:35:00;;;;;;;5.27;3.90;;;;;;;8.34;100.00;153502.47;5109214;28;20460;-91
2024/02/20 00:37:27;;;;;;;4.63;3.10;;;;;;;8.38;100.00;153511.53;5124308;27;20459;-91
2024/02/20 00:39:55;;;;;;;5.60;3.40;;;;;;;8.37;100.00;153510.22;5099031;28;20504;-91
2024/02/20 00:42:21;;;;;;;4.63;2.80;;;;;;;8.36;100.00;153507.69;5095426;28;21004;-91
2024/02/20 00:44:48;;;;;;;3.63;3.00;;;;;;;8.38;100.00;153512.84;5096276;28;20444;-91
2024/02/20 00:47:14;;;;;;;7.90;3.93;;;;;;;8.38;100.00;153512.84;5100755;28;20456;-92
2024/02/20 00:49:41;;;;;;;4.67;3.07;;;;;;;8.40;100.00;153518.00;5103728;28;20447;-91
2024/02/20 00:52:08;;;;;;;5.10;3.00;;;;;;;8.41;100.00;153519.28;5114078;28;20436;-91
2024/02/20 00:54:40;;;;;;;4.60;2.77;;;;;;;8.40;100.00;153516.69;5059647;28;20938;-91
2024/02/20 00:57:07;;;;;;;4.53;2.67;;;;;;;8.40;100.00;153516.69;5080273;28;20441;-90
2024/02/20 00:59:34;;;;;;;4.00;3.00;;;;;;;8.37;100.00;153510.22;5108041;28;21059;-91
2024/02/20 01:02:01;;;;;;;4.73;3.13;;;;;;;8.35;100.00;153503.78;5125097;27;20531;-91
2024/02/20 01:04:27;;;;;;;5.30;2.70;;;;;;;8.33;100.00;153499.91;5099895;28;21012;-90
2024/02/20 01:06:54;;;;;;;3.77;2.67;;;;;;;8.30;100.00;153492.16;5100493;28;20441;-91
2024/02/20 01:09:20;;;;;;;3.70;2.60;;;;;;;8.30;100.00;153492.16;5096054;28;20448;-91
2024/02/20 01:11:48;;;;;;;3.70;2.90;;;;;;;8.30;100.00;153492.16;5111251;28;20444;-89
2024/02/20 01:14:15;;;;;;;3.90;2.77;;;;;;;8.24;100.00;153476.59;5112836;28;20777;-89
2024/02/20 01:16:41;;;;;;;3.50;2.50;;;;;;;8.23;100.00;153472.72;5112736;28;20501;-90
2024/02/20 01:19:08;;;;;;;3.63;2.50;;;;;;;8.18;100.00;153459.81;5099952;28;21003;-91
2024/02/20 01:21:34;;;;;;;5.50;3.23;;;;;;;8.19;100.00;153463.66;5112867;28;20459;-91
2024/02/20 01:24:01;;;;;;;2.77;2.20;;;;;;;8.18;100.00;153461.06;5112001;28;20437;-90
2024/02/20 01:26:28;;;;;;;5.50;2.20;;;;;;;8.15;100.00;153452.03;5110808;28;20551;-91
2024/02/20 01:28:56;;;;;;;3.93;2.57;;;;;;;8.14;100.00;153450.75;5100262;28;20792;-90
2024/02/20 01:31:22;;;;;;;3.17;2.40;;;;;;;8.16;100.00;153454.59;5112466;28;20444;-91
2024/02/20 01:33:48;;;;;;;5.40;2.13;;;;;;;8.14;100.00;153450.75;5112563;28;20436;-90
2024/02/20 01:36:14;;;;;;;3.73;2.23;;;;;;;8.14;100.00;153450.75;5110531;28;20526;-91
2024/02/20 01:38:41;;;;;;;4.33;2.40;;;;;;;8.13;100.00;153448.13;5093412;28;20208;-91
2024/02/20 01:41:08;;;;;;;3.47;2.50;;;;;;;8.11;100.00;153443.00;5112390;28;20539;-91
2024/02/20 01:43:35;;;;;;;4.90;2.90;;;;;;;8.09;100.00;153437.81;5110612;28;20468;-90
2024/02/20 01:46:03;;;;;;;4.10;2.90;;;;;;;8.08;100.00;153435.22;5093030;28;20828;-90
2024/02/20 01:48:30;;;;;;;4.07;3.00;;;;;;;8.07;100.00;153431.38;5101033;28;20521;-90
2024/02/20 01:50:57;;;;;;;3.30;2.30;;;;;;;8.05;100.00;153427.47;5093859;28;20531;-90
2024/02/20 01:53:23;;;;;;;4.20;3.00;;;;;;;8.01;100.00;153417.16;5092184;28;20471;-90
2024/02/20 01:55:50;;;;;;;4.67;2.40;;;;;;;7.97;100.00;153406.78;5104836;28;20804;-90
2024/02/20 01:58:17;;;;;;;4.00;2.40;;;;;;;7.94;100.00;153399.09;5086199;28;20440;-90
2024/02/20 02:00:43;;;;;;;4.20;2.67;;;;;;;7.90;100.00;153388.72;5090331;28;20475;-90
2024/02/20 02:03:11;;;;;;;3.40;2.77;;;;;;;7.92;100.00;153393.88;5114989;27;20483;-91
2024/02/20 02:05:38;;;;;;;7.60;3.10;;;;;;;7.95;100.00;153401.63;5109359;28;20448;-90
2024/02/20 02:08:06;;;;;;;4.17;3.50;;;;;;;7.97;100.00;153406.78;5112237;28;20470;-91
2024/02/20 02:10:32;;;;;;;4.83;3.17;;;;;;;7.96;100.00;153405.53;5113751;27;20486;-89
2024/02/20 02:12:59;;;;;;;4.80;2.73;;;;;;;7.95;100.00;153402.94;5092632;28;20452;-91
2024/02/20 02:15:25;;;;;;;5.13;3.07;;;;;;;7.94;100.00;153400.34;5093027;28;20436;-90
2024/02/20 02:17:52;;;;;;;5.30;2.80;;;;;;;7.92;100.00;153393.88;5111506;28;20435;-90
2024/02/20 02:20:20;;;;;;;4.87;3.03;;;;;;;7.93;100.00;153397.78;5109087;28;21004;-90
2024/02/20 02:22:46;;;;;;;4.70;3.07;;;;;;;7.94;100.00;153399.09;5090831;28;20529;-90
2024/02/20 02:25:13;;;;;;;4.13;2.67;;;;;;;7.93;100.00;153396.47;5110016;27;20821;-90
2024/02/20 02:27:41;;;;;;;3.80;2.50;;;;;;;7.94;100.00;153400.34;5096724;28;20509;-91
2024/02/20 02:30:09;;;;;;;5.83;3.80;;;;;;;7.93;100.00;153396.47;5106459;28;20535;-91
2024/02/20 02:32:36;;;;;;;3.80;2.70;;;;;;;7.91;100.00;153391.31;5093085;28;20907;-91
2024/02/20 02:35:02;;;;;;;3.93;2.33;;;;;;;7.91;100.00;153392.63;5103555;28;20467;-90
2024/02/20 02:37:29;;;;;;;4.47;3.30;;;;;;;7.90;100.00;153388.72;5090759;28;20809;-90
2024/02/20 02:39:56;;;;;;;5.80;2.90;;;;;;;7.88;100.00;153383.56;5094167;28;20452;-91
2024/02/20 02:42:22;;;;;;;4.90;2.83;;;;;;;7.88;100.00;153383.56;5089032;28;20468;-90
2024/02/20 02:44:50;;;;;;;4.23;2.80;;;;;;;7.91;100.00;153391.31;5101271;28;20463;-90
2024/02/20 02:47:16;;;;;;;4.80;2.80;;;;;;;7.89;100.00;153387.41;5099068;28;21034;-90
2024/02/20 02:49:43;;;;;;;4.60;2.80;;;;;;;7.87;100.00;153380.97;5126602;27;20505;-90
2024/02/20 02:52:09;;;;;;;7.10;2.70;;;;;;;7.84;100.00;153374.50;5110487;28;20498;-90
2024/02/20 02:54:36;;;;;;;7.03;2.90;;;;;;;7.85;100.00;153375.81;5108948;27;20444;-90
2024/02/20 02:57:03;;;;;;;3.17;2.77;;;;;;;7.84;100.00;153373.19;5090382;28;20452;-91
2024/02/20 02:59:29;;;;;;;4.80;3.30;;;;;;;7.85;100.00;153377.09;5101142;27;20938;-90
2024/02/20 03:01:57;;;;;;;5.70;3.33;;;;;;;7.83;100.00;153370.66;5125859;27;20433;-90
2024/02/20 03:04:24;;;;;;;5.90;2.83;;;;;;;7.83;100.00;153370.66;5098898;28;20452;-91
2024/02/20 03:06:50;;;;;;;7.30;3.03;;;;;;;7.80;100.00;153364.19;5092793;27;20451;-90
2024/02/20 03:09:21;;;;;;;5.30;2.63;;;;;;;7.79;100.00;153360.28;5126914;27;20433;-90
2024/02/20 03:11:48;;;;;;;5.27;3.10;;;;;;;7.79;100.00;153360.28;5091656;28;20451;-90
2024/02/20 03:14:16;;;;;;;7.13;2.60;;;;;;;7.77;100.00;153355.13;5102360;28;20470;-91
2024/02/20 03:16:43;;;;;;;7.83;2.77;;;;;;;7.77;100.00;153355.13;5122498;28;20440;-90
2024/02/20 03:19:11;;;;;;;5.87;2.77;;;;;;;7.77;100.00;153356.44;5101672;28;20431;-90
2024/02/20 03:21:37;;;;;;;3.67;2.00;;;;;;;7.77;100.00;153355.13;5067072;28;20513;-91
2024/02/20 03:24:05;;;;;;;4.77;2.83;;;;;;;7.73;100.00;153344.81;5117337;28;20871;-90
2024/02/20 03:26:31;;;;;;;5.57;2.67;;;;;;;7.73;100.00;153344.81;5105186;28;20472;-90
2024/02/20 03:28:58;;;;;;;9.30;3.37;;;;;;;7.71;100.00;153339.63;5076413;28;21056;-91
2024/02/20 03:31:24;;;;;;;6.53;2.57;;;;;;;7.68;100.00;153331.84;5109975;28;20527;-90
2024/02/20 03:33:51;;;;;;;6.97;3.30;;;;;;;7.71;100.00;153339.63;5116231;28;20936;-91
2024/02/20 03:36:19;;;;;;;3.67;2.40;;;;;;;7.69;100.00;153334.47;5099955;28;20443;-91
2024/02/20 03:38:46;;;;;;;7.77;2.43;;;;;;;7.69;100.00;153334.47;5098732;28;20801;-91
2024/02/20 03:41:13;;;;;;;4.07;2.90;;;;;;;7.69;100.00;153335.75;5092159;28;20440;-90
2024/02/20 03:43:39;;;;;;;5.67;3.03;;;;;;;7.68;100.00;153331.84;5124835;28;20540;-91
2024/02/20 03:46:07;;;;;;;4.30;3.03;;;;;;;7.67;100.00;153329.31;5110519;28;20830;-90
2024/02/20 03:48:34;;;;;;;6.60;2.97;;;;;;;7.68;100.00;153331.84;5112733;27;20542;-90
2024/02/20 03:51:00;;;;;;;6.50;3.20;;;;;;;7.68;100.00;153331.84;5100503;27;20523;-91
2024/02/20 03:53:28;;;;;;;4.93;2.30;;;;;;;7.69;100.00;153334.47;5120849;27;20451;-90
2024/02/20 03:55:55;;;;;;;3.50;3.10;;;;;;;7.66;100.00;153328.00;5122945;27;20467;-90
2024/02/20 03:58:21;;;;;;;5.17;2.70;;;;;;;7.64;100.00;153321.56;5081768;27;20466;-90
2024/02/20 04:00:48;;;;;;;4.57;2.47;;;;;;;7.64;100.00;153321.56;5089850;28;20475;-90
2024/02/20 04:03:15;;;;;;;6.37;3.20;;;;;;;7.63;100.00;153318.94;5117234;27;20510;-89
2024/02/20 04:05:42;;;;;;;3.43;2.20;;;;;;;7.60;100.00;153312.50;5123048;27;20468;-90
2024/02/20 04:08:08;;;;;;;3.20;2.43;;;;;;;7.58;100.00;153307.34;5118089;27;20442;-90
2024/02/20 04:10:36;;;;;;;6.00;3.00;;;;;;;7.58;100.00;153307.34;5089278;28;20445;-90
2024/02/20 04:13:03;;;;;;;3.10;2.67;;;;;;;7.56;100.00;153302.19;5101188;28;21000;-89
2024/02/20 04:15:30;;;;;;;5.53;2.33;;;;;;;7.56;100.00;153300.88;5097779;27;20972;-91
2024/02/20 04:17:56;;;;;;;4.23;2.57;;;;;;;7.53;100.00;153293.13;5095398;28;20443;-90
2024/02/20 04:20:23;;;;;;;6.33;2.77;;;;;;;7.51;100.00;153287.97;5068111;28;20438;-90
2024/02/20 04:22:50;;;;;;;5.30;2.67;;;;;;;7.48;100.00;153280.22;5059058;28;20480;-90
2024/02/20 04:25:16;;;;;;;5.10;3.10;;;;;;;7.45;100.00;153272.47;5073569;28;21050;-90
2024/02/20 04:27:47;;;;;;;3.77;2.53;;;;;;;7.42;100.00;153266.00;5104549;27;20439;-91
2024/02/20 04:30:13;;;;;;;3.73;2.60;;;;;;;7.42;100.00;153264.69;5076385;28;20588;-90
2024/02/20 04:32:40;;;;;;;4.93;2.87;;;;;;;7.39;100.00;153258.25;5123877;27;20428;-90
2024/02/20 04:35:14;;;;;;;4.90;2.40;;;;;;;7.38;100.00;153254.41;5115723;27;20459;-90
2024/02/20 04:37:41;;;;;;;2.83;1.87;;;;;;;7.36;100.00;153250.50;5134730;27;20490;-90
2024/02/20 04:40:09;;;;;;;2.43;1.80;;;;;;;7.33;100.00;153244.03;5099458;28;20455;-90
2024/02/20 04:42:36;;;;;;;7.43;2.27;;;;;;;7.32;100.00;153240.19;5094938;28;20502;-90
2024/02/20 04:45:05;;;;;;;4.50;2.10;;;;;;;7.29;100.00;153232.44;5095274;28;20513;-91
2024/02/20 04:47:31;;;;;;;4.20;2.17;;;;;;;7.27;100.00;153228.56;5127461;27;20436;-90
2024/02/20 04:49:58;;;;;;;4.30;2.33;;;;;;;7.24;100.00;153220.81;5102701;27;20447;-90
2024/02/20 04:52:25;;;;;;;3.10;2.37;;;;;;;7.22;100.00;153214.38;5096002;28;20809;-90
2024/02/20 04:54:52;;;;;;;4.10;2.40;;;;;;;7.21;100.00;153213.06;5108447;27;20452;-89
2024/02/20 04:57:18;;;;;;;2.93;2.40;;;;;;;7.21;100.00;153213.06;5113464;27;20861;-90
2024/02/20 04:59:45;;;;;;;8.57;2.57;;;;;;;7.21;100.00;153211.78;5071534;28;20485;-90
2024/02/20 05:02:13;;;;;;;4.10;1.90;;;;;;;7.17;100.00;153201.47;5097232;28;20861;-90
2024/02/20 05:04:40;;;;;;;2.17;1.70;;;;;;;7.16;100.00;153198.84;5087806;28;20468;-90
2024/02/20 05:07:06;;;;;;;3.40;1.90;;;;;;;7.15;100.00;153197.56;5095970;28;20459;-90
2024/02/20 05:09:33;;;;;;;4.27;2.30;;;;;;;7.14;100.00;153193.72;5100445;28;20452;-90
2024/02/20 05:11:59;;;;;;;4.50;3.10;;;;;;;7.13;100.00;153191.09;5091991;28;20452;-89
2024/02/20 05:14:26;;;;;;;13.57;3.50;;;;;;;7.10;100.00;153184.66;5110377;28;20440;-90
2024/02/20 05:16:52;;;;;;;6.10;2.93;;;;;;;7.11;100.00;153187.25;5111596;28;20451;-90
2024/02/20 05:19:20;;;;;;;8.77;2.50;;;;;;;7.11;100.00;153187.25;5127723;27;20509;-89
2024/02/20 05:21:47;;;;;;;3.70;2.50;;;;;;;7.12;100.00;153188.56;5070905;28;20514;-90
2024/02/20 05:24:13;;;;;;;5.30;2.70;;;;;;;7.08;100.00;153179.50;5087654;27;20484;-90
2024/02/20 05:26:40;;;;;;;7.53;2.53;;;;;;;7.07;100.00;153176.91;5092897;28;20517;-90
2024/02/20 05:29:06;;;;;;;4.17;2.10;;;;;;;7.08;100.00;153178.19;5126453;27;20451;-89
2024/02/20 05:31:33;;;;;;;5.83;2.70;;;;;;;7.07;100.00;153175.66;5093155;28;20461;-89
2024/02/20 05:34:00;;;;;;;5.40;2.03;;;;;;;7.06;100.00;153174.34;5091745;28;20489;-90
2024/02/20 05:36:31;;;;;;;6.57;3.00;;;;;;;7.04;100.00;153169.16;5126258;27;20448;-90
2024/02/20 05:39:00;;;;;;;5.70;2.27;;;;;;;7.03;100.00;153166.59;5088204;28;20444;-91
2024/02/20 05:41:28;;;;;;;5.27;2.17;;;;;;;7.03;100.00;153165.28;5100979;28;20437;-89
2024/02/20 05:43:57;;;;;;;7.33;2.30;;;;;;;7.01;100.00;153161.44;5087143;28;20476;-90
2024/02/20 05:46:26;;;;;;;4.17;2.20;;;;;;;6.99;100.00;153156.25;5092484;28;20451;-90
2024/02/20 05:48:52;;;;;;;5.07;2.53;;;;;;;7.01;100.00;153161.44;5109676;28;20462;-90
2024/02/20 05:51:19;;;;;;;11.57;2.70;;;;;;;7.01;100.00;153161.44;5109061;28;20464;-90
2024/02/20 05:53:47;;;;;;;4.30;1.90;;;;;;;7.02;100.00;153164.00;5111631;28;20424;-90
2024/02/20 05:56:13;;;;;;;4.53;1.90;;;;;;;7.00;100.00;153158.84;5094049;28;20877;-90
2024/02/20 05:58:41;;;;;;;5.53;2.30;;;;;;;7.00;100.00;153158.84;5106317;27;20457;-90
2024/02/20 06:01:08;;;;;;;5.63;2.17;;;;;;;6.98;100.00;153153.69;5106520;27;20479;-89
2024/02/20 06:03:35;;;;;;;5.23;2.43;;;;;;;6.98;100.00;153153.69;5110509;27;20479;-90
2024/02/20 06:06:02;;;;;;;5.67;2.10;;;;;;;6.98;100.00;153152.38;5110954;27;20448;-90
2024/02/20 06:08:28;;;;;;;3.10;2.03;;;;;;;6.99;100.00;153156.25;5113268;27;20981;-90
2024/02/20 06:10:56;;;;;;;5.20;2.60;;;;;;;6.97;100.00;153149.78;5097194;27;20468;-90
2024/02/20 06:13:23;;;;;;;6.53;2.67;;;;;;;6.94;100.00;153143.34;5132291;27;20444;-89
2024/02/20 06:15:50;;;;;;;4.60;2.27;;;;;;;6.93;100.00;153140.78;5111757;27;20456;-90
2024/02/20 06:18:16;;;;;;;7.17;2.70;;;;;;;6.92;100.00;153138.19;5115449;27;20448;-90
2024/02/20 06:20:45;;;;;;;4.83;2.07;;;;;;;6.92;100.00;153138.19;5090311;28;20801;-90
2024/02/20 06:23:12;;;;;;;6.17;3.00;;;;;;;6.91;100.00;153135.59;5090163;28;20449;-90
2024/02/20 06:25:40;;;;;;;11.10;3.30;;;;;;;6.90;100.00;153133.03;5090712;28;20463;-90
2024/02/20 06:28:08;;;;;;;5.33;2.43;;;;;;;6.90;100.00;153131.72;5087108;28;20452;-90
2024/02/20 06:30:35;;;;;;;6.23;2.87;;;;;;;6.91;100.00;153135.59;5119239;27;20578;-90
2024/02/20 06:33:01;;;;;;;5.27;2.80;;;;;;;6.91;100.00;153135.59;5116808;27;20452;-89
2024/02/20 06:35:28;;;;;;;4.40;2.30;;;;;;;6.90;100.00;153133.03;5101981;27;20456;-91
2024/02/20 06:37:54;;;;;;;12.10;2.90;;;;;;;6.84;100.00;153117.53;5109240;28;20452;-89
2024/02/20 06:40:21;;;;;;;11.20;2.97;;;;;;;6.87;100.00;153125.28;5093197;28;20465;-89
2024/02/20 06:42:47;;;;;;;9.23;2.67;;;;;;;6.88;100.00;153127.88;5087471;28;20513;-90
2024/02/20 06:45:15;;;;;;;4.80;2.27;;;;;;;6.86;100.00;153122.69;5095980;28;20469;-89
2024/02/20 06:47:42;;;;;;;4.17;2.37;;;;;;;6.86;100.00;153122.69;5103660;27;20449;-90
2024/02/20 06:50:11;;;;;;;6.90;2.23;;;;;;;6.86;100.00;153122.69;5111792;27;20496;-89
2024/02/20 06:52:38;;;;;;;2.80;1.70;;;;;;;6.89;100.00;153129.13;5130587;27;20508;-90
2024/02/20 06:55:06;;;;;;;7.37;2.40;;;;;;;6.91;100.00;153135.59;5112460;27;20558;-90
2024/02/20 06:57:35;;;;;;;6.67;2.30;;;;;;;6.90;100.00;153131.72;5105163;27;20459;-90
2024/02/20 07:00:02;;;;;;;6.83;2.87;;;;;;;6.90;100.00;153131.72;5127231;27;20566;-90
2024/02/20 07:02:30;;;;;;;7.00;2.53;;;;;;;6.89;100.00;153129.13;5092049;28;20445;-90
2024/02/20 07:04:56;;;;;;;8.50;2.27;;;;;;;6.89;100.00;153130.44;5079060;28;20598;-90
2024/02/20 07:07:34;;;;;;;5.30;2.17;;;;;;;6.89;100.00;153129.13;5086580;27;20459;-91
2024/02/20 07:10:01;;;;;;;5.23;2.33;;;;;;;6.92;100.00;153138.19;5125451;27;20495;-91
2024/02/20 07:12:28;;;;;;;5.47;2.90;;;;;;;6.93;100.00;153139.47;5111432;27;20491;-91
2024/02/20 07:14:55;;;;;;;5.60;2.97;;;;;;;6.96;100.00;153147.25;5095428;28;20480;-91
2024/02/20 07:17:24;;;;;;;3.83;2.77;;;;;;;6.97;100.00;153151.09;5083988;28;20448;-92
2024/02/20 07:19:52;;;;;;;5.30;2.93;;;;;;;6.97;100.00;153149.78;5091927;28;20472;-91
2024/02/20 07:22:18;;;;;;;4.17;2.93;;;;;;;6.99;100.00;153155.00;5106855;27;20440;-91
2024/02/20 07:24:45;;;;;;;7.63;2.93;;;;;;;7.00;100.00;153158.84;5093730;28;21224;-91
2024/02/20 07:27:12;;;;;;;5.20;2.17;;;;;;;7.04;100.00;153167.91;5096145;28;20933;-90
2024/02/20 07:29:40;;;;;;;4.33;2.50;;;;;;;7.06;100.00;153174.34;5110014;27;20565;-91
2024/02/20 07:32:08;;;;;;;5.50;2.40;;;;;;;7.07;100.00;153176.91;5121683;27;20439;-91
2024/02/20 07:34:35;;;;;;;4.83;2.20;;;;;;;7.07;100.00;153176.91;5116730;27;20483;-91
2024/02/20 07:37:04;;;;;;;4.43;2.37;;;;;;;7.11;100.00;153185.94;5099536;27;20463;-90
2024/02/20 07:39:31;;;;;;;4.80;2.37;;;;;;;7.13;100.00;153192.41;5109531;27;21089;-77
2024/02/20 07:41:58;;;;;;;9.43;2.43;;;;;;;7.14;100.00;153195.00;5083955;27;20451;-76
2024/02/20 07:44:24;;;;;;;12.73;2.67;;;;;;;7.17;100.00;153202.75;5117641;27;20495;-76
2024/02/20 07:46:51;;;;;;;5.87;2.60;;;;;;;7.18;100.00;153205.31;5081966;27;20474;-76
2024/02/20 07:49:17;;;;;;;7.97;2.90;;;;;;;7.19;100.00;153206.63;5098484;27;20458;-76
2024/02/20 07:51:44;;;;;;;9.63;2.57;;;;;;;7.21;100.00;153211.78;5135796;27;20505;-76
2024/02/20 07:54:12;;;;;;;5.43;2.90;;;;;;;7.24;100.00;153219.53;5118043;27;20443;-77
2024/02/20 07:56:40;;;;;;;10.50;3.10;;;;;;;7.25;100.00;153222.13;5098127;27;20452;-77
2024/02/20 07:59:07;;;;;;;4.87;2.10;;;;;;;7.25;100.00;153222.13;5110025;27;20455;-76
2024/02/20 08:01:34;;;;;;;13.50;3.63;;;;;;;7.27;100.00;153227.28;5114528;27;20557;-77
2024/02/20 08:04:00;;;;;;;5.83;2.53;;;;;;;7.27;100.00;153228.56;5116601;27;20479;-76
2024/02/20 08:06:27;;;;;;;3.83;2.13;;;;;;;7.28;100.00;153229.88;5119568;27;20483;-77
2024/02/20 08:08:53;;;;;;;5.20;2.90;;;;;;;7.32;100.00;153240.19;5120145;27;20444;-77
2024/02/20 08:11:21;;;;;;;9.77;2.73;;;;;;;7.32;100.00;153241.47;5101612;27;21249;-76
2024/02/20 08:13:49;;;;;;;6.77;2.90;;;;;;;7.34;100.00;153246.63;5099440;27;20542;-76
2024/02/20 08:16:16;;;;;;;5.60;2.57;;;;;;;7.40;100.00;153260.84;5116475;27;20483;-77
2024/02/20 08:18:43;;;;;;;6.07;2.40;;;;;;;7.51;100.00;153287.97;5119361;27;20451;-77
2024/02/20 08:21:10;;;;;;;5.43;2.60;;;;;;;7.57;100.00;153303.47;5134989;27;20455;-77
2024/02/20 08:23:37;;;;;;;5.27;3.00;;;;;;;7.65;100.00;153324.16;5114366;27;20447;-77
2024/02/20 08:26:04;;;;;;;7.33;3.17;;;;;;;7.77;100.00;153356.44;5119427;27;20463;-77
2024/02/20 08:28:32;;;;;;;10.27;3.17;;;;;;;7.86;100.00;153379.66;5102736;27;20777;-77
2024/02/20 08:31:00;;;;;;;4.73;2.10;;;;;;;7.94;100.00;153399.09;5114138;27;20456;-77
2024/02/20 08:33:26;;;;;;;4.60;2.73;;;;;;;7.98;100.00;153410.69;5100878;27;20978;-76
2024/02/20 08:35:53;;;;;;;6.20;2.63;;;;;;;8.07;100.00;153431.38;5114168;27;20456;-76
2024/02/20 08:38:20;;;;;;;8.97;2.80;;;;;;;8.14;100.00;153449.44;5083576;27;20452;-77
2024/02/20 08:40:46;;;;;;;5.63;2.80;;;;;;;8.20;100.00;153464.97;5116236;27;20463;-76
2024/02/20 08:43:14;;;;;;;7.57;2.90;;;;;;;8.27;100.00;153483.09;5110958;27;20479;-77
2024/02/20 08:45:41;;;;;;;4.43;2.37;;;;;;;8.36;100.00;153506.38;5080241;27;20470;-76
2024/02/20 08:48:08;;;;;;;6.60;2.80;;;;;;;8.39;100.00;153515.38;5118300;27;22093;-77
2024/02/20 08:50:35;;;;;;;6.00;2.87;;;;;;;8.48;100.00;153538.69;5095359;27;20548;-77
2024/02/20 08:53:07;;;;;;;6.10;2.80;;;;;;;8.53;100.00;153551.59;5081177;28;20530;-77
2024/02/20 08:55:33;;;;;;;4.43;2.17;;;;;;;8.58;100.00;153564.53;5118323;27;20456;-77
2024/02/20 08:58:00;;;;;;;5.03;2.37;;;;;;;8.60;100.00;153567.13;5097833;27;20453;-76
2024/02/20 09:00:26;;;;;;;6.67;2.90;;;;;;;8.56;100.00;153558.06;5134009;27;20978;-77
2024/02/20 09:02:56;;;;;;;4.60;2.77;;;;;;;8.55;100.00;153555.50;5118276;27;20448;-76
2024/02/20 09:05:23;;;;;;;7.17;2.77;;;;;;;8.56;100.00;153559.38;5117972;27;20540;-77
2024/02/20 09:07:50;;;;;;;6.77;2.83;;;;;;;8.60;100.00;153568.44;5100294;27;20483;-77
2024/02/20 09:10:16;;;;;;;5.40;2.23;;;;;;;8.61;100.00;153570.97;5098839;27;21037;-77
2024/02/20 09:12:43;;;;;;;7.30;2.73;;;;;;;8.61;100.00;153569.69;5099597;27;20508;-76
2024/02/20 09:15:09;;;;;;;6.03;2.90;;;;;;;8.60;100.00;153568.44;5097926;27;20505;-76
2024/02/20 09:17:36;;;;;;;10.10;3.20;;;;;;;8.60;100.00;153568.44;5117422;27;20886;-76
2024/02/20 09:20:05;;;;;;;5.30;2.80;;;;;;;8.63;100.00;153574.88;5099835;27;20451;-76
2024/02/20 09:22:33;;;;;;;5.87;2.83;;;;;;;8.60;100.00;153567.13;5132486;27;20543;-76
2024/02/20 09:25:00;;;;;;;6.13;2.80;;;;;;;8.60;100.00;153567.13;5133039;27;20521;-76
2024/02/20 09:27:26;;;;;;;6.00;2.67;;;;;;;8.59;100.00;153565.81;5099184;27;20502;-77
2024/02/20 09:29:53;;;;;;;6.60;3.53;;;;;;;8.56;100.00;153559.38;5099071;27;20560;-77
2024/02/20 09:32:20;;;;;;;8.90;3.20;;;;;;;8.57;100.00;153561.97;5097914;27;21060;-76
2024/02/20 09:34:46;;;;;;;4.80;2.80;;;;;;;8.60;100.00;153568.44;5116332;27;20512;-76
2024/02/20 09:37:14;;;;;;;14.03;4.10;;;;;;;8.57;100.00;153560.66;5132778;27;21214;-76
2024/02/20 09:39:40;;;;;;;9.13;3.93;;;;;;;8.57;100.00;153561.97;5117758;27;20945;-76
2024/02/20 09:42:11;;;;;;;6.30;3.23;;;;;;;8.61;100.00;153569.69;5099236;27;20456;-77
2024/02/20 09:44:40;;;;;;;5.30;2.60;;;;;;;8.64;100.00;153578.75;5116370;27;20581;-77
2024/02/20 09:47:08;;;;;;;8.17;2.87;;;;;;;8.70;100.00;153592.97;5116665;27;20448;-77
2024/02/20 09:49:34;;;;;;;6.70;2.60;;;;;;;8.78;100.00;153613.66;5117211;27;20452;-77
2024/02/20 09:52:03;;;;;;;4.50;2.73;;;;;;;8.83;100.00;153626.59;5080369;27;20448;-77
2024/02/20 09:54:33;;;;;;;6.83;3.20;;;;;;;8.88;100.00;153639.50;5098210;27;20525;-77
2024/02/20 09:57:00;;;;;;;5.83;3.03;;;;;;;8.93;100.00;153652.44;5099056;27;20487;-77
2024/02/20 09:59:27;;;;;;;5.73;2.77;;;;;;;9.00;100.00;153670.56;5097484;27;20969;-77
2024/02/20 10:01:53;;;;;;;10.33;4.00;;;;;;;9.02;100.00;153675.72;5099111;27;20456;-77
2024/02/20 10:04:21;;;;;;;7.97;3.37;;;;;;;9.08;99.86;153691.25;5117257;27;20562;-77
2024/02/20 10:06:47;;;;;;;8.30;2.70;;;;;;;9.11;98.82;153698.97;5099116;27;20451;-77
2024/02/20 10:09:15;;;;;;;9.33;3.07;;;;;;;9.18;98.50;153718.41;5081192;27;20447;-77
2024/02/20 10:11:43;;;;;;;7.77;3.27;;;;;;;9.22;96.82;153727.44;5117110;27;20575;-77
2024/02/20 10:14:09;;;;;;;7.60;2.97;;;;;;;9.23;95.27;153728.75;5096633;27;20560;-77
2024/02/20 10:16:35;;;;;;;5.67;2.80;;;;;;;9.22;97.07;153726.13;5130907;27;20447;-77
2024/02/20 10:19:04;;;;;;;7.37;2.73;;;;;;;9.13;96.10;153704.19;5130440;27;20488;-77
2024/02/20 10:21:31;;;;;;;9.33;2.97;;;;;;;9.08;95.43;153692.50;5115934;27;20815;-76
2024/02/20 10:24:02;;;;;;;6.50;2.83;;;;;;;9.01;94.14;153673.13;5111930;27;20444;-77
2024/02/20 10:26:30;;;;;;;7.40;2.77;;;;;;;9.02;95.43;153677.03;5097745;27;20476;-77
2024/02/20 10:28:59;;;;;;;5.83;3.10;;;;;;;9.00;94.78;153670.56;5116058;27;20443;-76
2024/02/20 10:31:26;;;;;;;6.00;3.03;;;;;;;8.99;93.34;153667.97;5098458;27;20457;-77
2024/02/20 10:33:54;;;;;;;4.87;2.70;;;;;;;9.05;91.98;153683.50;5080950;27;20877;-76
2024/02/20 10:36:21;;;;;;;5.10;2.70;;;;;;;9.10;93.33;153697.72;5097897;27;20594;-76
2024/02/20 10:38:49;;;;;;;3.33;2.80;;;;;;;9.15;94.65;153710.66;5115382;27;20539;-77
2024/02/20 10:41:16;;;;;;;5.73;2.80;;;;;;;9.21;96.38;153724.88;5115802;27;20441;-76
2024/02/20 10:43:47;;;;;;;4.50;2.03;;;;;;;9.21;95.38;153723.59;5115645;27;20450;-77
2024/02/20 10:46:15;;;;;;;5.47;2.80;;;;;;;9.25;94.29;153735.22;5116008;27;20540;-76
2024/02/20 10:48:46;;;;;;;4.17;2.60;;;;;;;9.30;94.74;153748.13;5080151;27;20467;-77
2024/02/20 10:51:12;;;;;;;4.37;2.63;;;;;;;9.26;92.27;153737.81;5131061;27;20864;-76
2024/02/20 10:53:38;;;;;;;3.43;2.57;;;;;;;9.35;92.91;153761.06;5116494;27;20454;-76
2024/02/20 10:56:06;;;;;;;7.07;2.40;;;;;;;9.33;93.35;153754.59;5098490;27;20203;-76
2024/02/20 10:58:39;;;;;;;5.43;2.57;;;;;;;9.36;91.78;153763.66;5115418;27;20451;-76
2024/02/20 11:01:08;;;;;;;5.10;2.90;;;;;;;9.35;90.82;153761.06;5114474;27;20531;-77
2024/02/20 11:03:36;;;;;;;4.57;2.57;;;;;;;9.37;91.71;153764.97;5116034;27;20816;-76
2024/02/20 11:06:02;;;;;;;6.17;2.40;;;;;;;9.35;90.92;153761.06;5098516;28;20503;-76
2024/02/20 11:08:29;;;;;;;4.40;2.63;;;;;;;9.28;86.75;153742.97;5096740;27;20974;-76
2024/02/20 11:10:56;;;;;;;3.47;1.80;;;;;;;9.28;87.69;153741.69;5097152;28;20513;-76
2024/02/20 11:13:24;;;;;;;7.13;2.90;;;;;;;9.24;82.85;153732.59;5081656;28;20453;-76
2024/02/20 11:15:51;;;;;;;8.23;2.80;;;;;;;9.29;84.73;153745.59;5096488;27;20784;-76
2024/02/20 11:18:20;;;;;;;5.87;3.40;;;;;;;9.29;84.50;153744.28;5115343;27;20510;-76
2024/02/20 11:20:59;;;;;;;8.53;2.63;;;;;;;9.32;87.19;153753.31;5113307;28;20868;-76
2024/02/20 11:23:29;;;;;;;3.53;2.13;;;;;;;9.24;89.79;153732.59;5096651;28;20536;-76
2024/02/20 11:26:06;;;;;;;5.30;2.57;;;;;;;9.19;90.12;153719.69;5115471;28;20571;-76